Time;durP1;ratioP1;P1;durP2;ratioP2;P2;SDS_P1;SDS_P2;PMS_P1;PMS_P2;Temp;Humidity;BMP_temperature;BMP_pressure;BME280_temperature;BME280_humidity;BME280_pressure;Samples;Min_cycle;Max_cycle;Signal;HPM_P1;HPM_P2
2021/08/20 00:00:46;;;;;;;1.08;0.93;;;19.10;78.50;;;;;;5096894;28;20373;-87
2021/08/20 00:03:12;;;;;;;1.38;1.05;;;19.10;78.60;;;;;;5097307;28;20435;-87
2021/08/20 00:05:37;;;;;;;1.33;0.90;;;19.10;78.70;;;;;;5097281;28;20054;-87
2021/08/20 00:08:03;;;;;;;1.38;1.00;;;19.10;78.70;;;;;;5097985;28;20080;-88
2021/08/20 00:10:29;;;;;;;1.73;1.00;;;19.10;78.90;;;;;;5097414;28;20019;-87
2021/08/20 00:12:55;;;;;;;3.50;1.83;;;19.10;79.00;;;;;;5115774;28;20516;-87
2021/08/20 00:15:20;;;;;;;2.47;1.17;;;19.00;79.40;;;;;;5096687;28;20026;-86
2021/08/20 00:17:46;;;;;;;1.25;0.98;;;19.00;79.10;;;;;;5096926;28;20031;-87
2021/08/20 00:20:12;;;;;;;1.17;0.82;;;19.00;79.10;;;;;;5097596;28;20027;-87
2021/08/20 00:22:37;;;;;;;0.95;0.73;;;19.00;79.00;;;;;;5097634;28;20047;-87
2021/08/20 00:25:04;;;;;;;3.13;0.90;;;19.00;79.10;;;;;;5097061;28;20415;-93
2021/08/20 00:27:29;;;;;;;2.00;1.00;;;19.00;79.30;;;;;;5096750;28;20088;-88
2021/08/20 00:29:55;;;;;;;1.45;0.82;;;19.00;79.20;;;;;;5096748;28;20049;-88
2021/08/20 00:32:21;;;;;;;1.10;0.82;;;19.00;79.10;;;;;;5097160;28;20055;-87
2021/08/20 00:34:46;;;;;;;1.50;0.80;;;18.90;79.30;;;;;;5097576;28;20562;-87
2021/08/20 00:37:12;;;;;;;1.25;0.80;;;18.90;79.20;;;;;;5115146;28;20412;-87
2021/08/20 00:39:39;;;;;;;1.48;1.00;;;19.00;79.30;;;;;;5115004;28;20031;-87
2021/08/20 00:42:06;;;;;;;2.72;0.90;;;19.00;79.50;;;;;;5096457;28;20028;-87
2021/08/20 00:44:32;;;;;;;1.40;0.93;;;18.90;79.60;;;;;;5096672;28;20059;-87
2021/08/20 00:46:58;;;;;;;1.50;1.00;;;18.90;79.70;;;;;;5097709;28;20417;-87
2021/08/20 00:49:24;;;;;;;1.00;0.90;;;18.90;79.60;;;;;;5096677;28;20551;-88
2021/08/20 00:51:51;;;;;;;1.80;1.00;;;18.90;79.70;;;;;;5095853;28;20403;-88
2021/08/20 00:54:18;;;;;;;0.90;0.73;;;18.90;79.80;;;;;;5097183;28;20031;-87
2021/08/20 00:56:45;;;;;;;1.80;0.90;;;18.90;79.90;;;;;;5115073;28;20055;-87
2021/08/20 00:59:12;;;;;;;1.20;0.90;;;18.90;79.80;;;;;;5096466;28;20031;-88
2021/08/20 01:01:38;;;;;;;2.20;0.95;;;18.90;80.10;;;;;;5130572;27;20400;-87
2021/08/20 01:04:07;;;;;;;3.28;0.98;;;18.90;80.00;;;;;;5095737;28;20027;-87
2021/08/20 01:06:37;;;;;;;1.17;0.70;;;18.90;79.80;;;;;;5095444;28;20015;-88
2021/08/20 01:09:03;;;;;;;2.15;1.10;;;18.90;80.20;;;;;;5095553;28;20019;-88
2021/08/20 01:11:29;;;;;;;1.95;1.10;;;18.90;80.10;;;;;;5096485;28;20114;-87
2021/08/20 01:13:55;;;;;;;1.38;0.85;;;18.90;80.20;;;;;;5096353;28;20552;-87
2021/08/20 01:16:21;;;;;;;1.98;0.90;;;18.90;80.40;;;;;;5096082;28;20059;-87
2021/08/20 01:18:46;;;;;;;1.80;0.90;;;18.90;80.40;;;;;;5095218;28;20043;-88
2021/08/20 01:21:13;;;;;;;1.45;0.85;;;18.90;80.20;;;;;;5096162;28;20034;-88
2021/08/20 01:23:39;;;;;;;1.17;0.80;;;18.90;80.30;;;;;;5095780;28;20035;-87
2021/08/20 01:26:06;;;;;;;1.33;0.80;;;18.90;80.70;;;;;;5096499;28;20020;-87
2021/08/20 01:28:32;;;;;;;1.40;1.00;;;18.90;80.40;;;;;;5095627;28;20122;-87
2021/08/20 01:31:10;;;;;;;1.25;0.98;;;18.80;80.60;;;;;;5095646;28;20110;-87
2021/08/20 01:33:36;;;;;;;1.52;1.00;;;18.80;81.50;;;;;;5092966;28;20028;-87
2021/08/20 01:36:03;;;;;;;1.45;0.88;;;18.80;80.50;;;;;;5095424;28;20039;-87
2021/08/20 01:38:28;;;;;;;1.23;0.90;;;18.80;80.80;;;;;;5095878;28;20114;-87
2021/08/20 01:40:55;;;;;;;1.40;0.80;;;18.80;80.80;;;;;;5096012;28;20051;-93
2021/08/20 01:43:21;;;;;;;1.02;0.80;;;18.80;80.60;;;;;;5095197;28;20039;-88
2021/08/20 01:45:47;;;;;;;1.67;0.90;;;18.80;80.60;;;;;;5093799;28;20028;-87
2021/08/20 01:48:13;;;;;;;2.20;1.15;;;18.80;80.70;;;;;;5095182;28;20031;-87
2021/08/20 01:50:41;;;;;;;2.00;0.98;;;18.80;80.80;;;;;;5095481;28;20020;-87
2021/08/20 01:53:08;;;;;;;1.52;0.90;;;18.80;81.10;;;;;;5096125;28;20027;-87
2021/08/20 01:55:34;;;;;;;1.30;1.00;;;18.80;80.90;;;;;;5095090;28;20369;-87
2021/08/20 01:58:02;;;;;;;2.40;0.93;;;18.80;80.80;;;;;;5094910;28;20144;-87
2021/08/20 02:00:27;;;;;;;2.38;1.00;;;18.80;81.10;;;;;;5095038;28;20023;-87
2021/08/20 02:02:53;;;;;;;1.88;1.10;;;18.80;81.10;;;;;;5095220;28;20444;-88
2021/08/20 02:05:19;;;;;;;1.38;0.80;;;18.80;81.20;;;;;;5095560;28;20015;-87
2021/08/20 02:07:44;;;;;;;2.67;1.00;;;18.70;81.10;;;;;;5095549;28;20434;-88
2021/08/20 02:10:12;;;;;;;1.65;1.00;;;18.80;81.40;;;;;;5113087;28;20019;-88
2021/08/20 02:12:37;;;;;;;2.03;0.90;;;18.70;81.20;;;;;;5094924;28;20510;-87
2021/08/20 02:15:04;;;;;;;1.50;0.90;;;18.80;81.50;;;;;;5094407;28;20102;-87
2021/08/20 02:17:29;;;;;;;1.90;0.90;;;18.70;81.20;;;;;;5094842;28;20504;-87
2021/08/20 02:19:55;;;;;;;1.17;1.00;;;18.70;81.40;;;;;;5095572;28;20019;-87
2021/08/20 02:22:21;;;;;;;1.42;0.93;;;18.80;81.40;;;;;;5094465;28;20042;-87
2021/08/20 02:24:46;;;;;;;1.23;0.80;;;18.80;81.60;;;;;;5094218;28;20034;-87
2021/08/20 02:27:12;;;;;;;1.75;1.00;;;18.70;81.30;;;;;;5092957;28;20031;-87
2021/08/20 02:29:38;;;;;;;2.25;1.17;;;18.70;81.30;;;;;;5094432;28;20031;-88
2021/08/20 02:32:04;;;;;;;2.17;1.20;;;18.70;81.80;;;;;;5113550;28;20055;-87
2021/08/20 02:34:29;;;;;;;1.95;1.10;;;18.70;81.80;;;;;;5094581;28;20031;-87
2021/08/20 02:36:55;;;;;;;1.75;1.02;;;18.70;81.80;;;;;;5112756;28;20031;-87
2021/08/20 02:39:21;;;;;;;1.60;1.00;;;18.80;82.10;;;;;;5094141;28;20553;-87
2021/08/20 02:41:46;;;;;;;1.38;1.08;;;18.80;82.00;;;;;;5094341;28;20395;-87
2021/08/20 02:44:12;;;;;;;2.83;1.00;;;18.70;81.90;;;;;;5094761;28;20431;-88
2021/08/20 02:46:38;;;;;;;1.70;1.10;;;18.70;81.80;;;;;;5094982;28;20016;-87
2021/08/20 02:49:04;;;;;;;3.17;1.25;;;18.70;81.90;;;;;;5093946;28;20062;-87
2021/08/20 02:51:30;;;;;;;3.10;1.30;;;18.70;82.10;;;;;;5093954;28;20051;-87
2021/08/20 02:53:55;;;;;;;1.98;1.30;;;18.70;82.30;;;;;;5094169;28;20027;-87
2021/08/20 02:56:21;;;;;;;1.02;0.90;;;18.70;82.20;;;;;;5094464;28;20376;-87
2021/08/20 02:58:47;;;;;;;1.52;1.00;;;18.70;82.40;;;;;;5094914;28;20114;-87
2021/08/20 03:01:14;;;;;;;2.10;1.17;;;18.70;82.20;;;;;;5093939;28;20019;-87
2021/08/20 03:03:40;;;;;;;1.30;0.90;;;18.60;82.10;;;;;;5112358;28;20471;-88
2021/08/20 03:06:05;;;;;;;1.92;1.20;;;18.60;82.40;;;;;;5093747;28;20043;-87
2021/08/20 03:08:31;;;;;;;1.63;1.13;;;18.60;82.30;;;;;;5094059;28;20466;-87
2021/08/20 03:10:56;;;;;;;3.20;1.02;;;18.70;82.60;;;;;;5094867;28;20484;-87
2021/08/20 03:13:22;;;;;;;1.85;1.10;;;18.70;82.40;;;;;;5094064;28;20031;-87
2021/08/20 03:15:48;;;;;;;2.17;1.02;;;18.60;82.60;;;;;;5093838;28;20054;-88
2021/08/20 03:18:13;;;;;;;1.73;1.05;;;18.60;82.60;;;;;;5093614;28;20474;-88
2021/08/20 03:20:39;;;;;;;2.28;0.98;;;18.60;82.70;;;;;;5093537;28;20023;-87
2021/08/20 03:23:05;;;;;;;2.75;1.30;;;18.60;82.60;;;;;;5094498;28;20092;-87
2021/08/20 03:25:30;;;;;;;2.47;1.20;;;18.60;82.70;;;;;;5094070;28;20392;-88
2021/08/20 03:27:56;;;;;;;2.55;1.02;;;18.60;82.90;;;;;;5096809;28;20391;-87
2021/08/20 03:30:22;;;;;;;1.65;1.30;;;18.50;82.50;;;;;;5098259;28;20036;-87
2021/08/20 03:32:47;;;;;;;1.42;1.08;;;18.50;82.80;;;;;;5098085;28;20028;-88
2021/08/20 03:35:14;;;;;;;1.95;1.27;;;18.50;83.00;;;;;;5098460;28;20028;-87
2021/08/20 03:37:40;;;;;;;2.35;1.15;;;18.50;83.20;;;;;;5098102;28;20073;-88
2021/08/20 03:40:07;;;;;;;2.50;1.00;;;18.50;83.70;;;;;;5116549;28;20027;-87
2021/08/20 03:42:32;;;;;;;1.60;1.23;;;18.60;83.40;;;;;;5097684;28;20050;-87
2021/08/20 03:44:58;;;;;;;1.75;1.20;;;18.50;83.30;;;;;;5116321;28;20028;-87
2021/08/20 03:47:24;;;;;;;1.48;1.02;;;18.60;83.50;;;;;;5116353;28;20034;-87
2021/08/20 03:49:49;;;;;;;1.60;1.10;;;18.60;83.00;;;;;;5118443;27;20020;-87
2021/08/20 03:52:15;;;;;;;2.08;1.10;;;18.60;83.50;;;;;;5094937;28;20559;-87
2021/08/20 03:54:41;;;;;;;3.08;1.20;;;18.60;82.80;;;;;;5096918;28;20111;-88
2021/08/20 03:57:06;;;;;;;1.50;1.10;;;18.50;83.30;;;;;;5097837;28;20123;-87
2021/08/20 03:59:33;;;;;;;2.38;1.30;;;18.50;83.20;;;;;;5097914;28;20392;-88
2021/08/20 04:02:02;;;;;;;1.95;1.10;;;18.60;83.30;;;;;;5097753;28;20176;-88
2021/08/20 04:04:27;;;;;;;2.05;1.30;;;18.50;83.30;;;;;;5097215;28;20130;-87
2021/08/20 04:06:53;;;;;;;2.28;1.13;;;18.60;83.50;;;;;;5096073;28;20110;-88
2021/08/20 04:09:19;;;;;;;2.90;1.30;;;18.60;83.40;;;;;;5096947;28;20020;-86
2021/08/20 04:11:44;;;;;;;2.33;1.38;;;18.50;83.30;;;;;;5096684;28;20054;-87
2021/08/20 04:14:10;;;;;;;2.42;1.15;;;18.50;83.30;;;;;;5097272;28;20034;-88
2021/08/20 04:16:36;;;;;;;1.67;1.30;;;18.50;83.40;;;;;;5115112;28;20403;-87
2021/08/20 04:19:02;;;;;;;2.25;1.25;;;18.50;83.40;;;;;;5096365;28;20122;-87
2021/08/20 04:21:27;;;;;;;2.90;1.55;;;18.60;83.70;;;;;;5115053;28;20173;-87
2021/08/20 04:23:53;;;;;;;1.83;1.23;;;18.50;83.80;;;;;;5096445;28;20036;-87
2021/08/20 04:26:19;;;;;;;2.85;1.30;;;18.50;83.70;;;;;;5096995;28;20015;-87
2021/08/20 04:28:45;;;;;;;2.55;1.30;;;18.50;83.80;;;;;;5115156;28;20020;-88
2021/08/20 04:31:11;;;;;;;2.72;1.52;;;18.50;83.40;;;;;;5096654;28;20407;-88
2021/08/20 04:33:37;;;;;;;3.42;1.30;;;18.50;84.00;;;;;;5096655;28;20036;-87
2021/08/20 04:36:02;;;;;;;2.65;1.50;;;18.50;83.70;;;;;;5096050;28;20383;-87
2021/08/20 04:38:28;;;;;;;3.40;1.42;;;18.50;83.70;;;;;;5096255;28;20059;-87
2021/08/20 04:40:54;;;;;;;2.00;1.50;;;18.50;83.70;;;;;;5115118;28;20031;-87
2021/08/20 04:43:19;;;;;;;5.10;1.60;;;18.50;83.80;;;;;;5096166;28;20126;-87
2021/08/20 04:45:46;;;;;;;3.92;1.65;;;18.50;84.10;;;;;;5095286;28;20028;-88
2021/08/20 04:48:11;;;;;;;2.55;1.60;;;18.50;84.00;;;;;;5095980;28;20024;-87
2021/08/20 04:50:37;;;;;;;2.60;1.73;;;18.40;83.70;;;;;;5095700;28;20111;-87
2021/08/20 04:53:03;;;;;;;6.15;1.88;;;18.40;84.00;;;;;;5096563;28;20058;-88
2021/08/20 04:55:29;;;;;;;3.17;1.88;;;18.40;84.30;;;;;;5096202;28;20024;-88
2021/08/20 04:57:54;;;;;;;2.72;1.58;;;18.40;84.30;;;;;;5095536;28;20519;-87
2021/08/20 05:00:20;;;;;;;3.28;1.85;;;18.40;84.30;;;;;;5094940;28;20068;-87
2021/08/20 05:02:46;;;;;;;2.33;1.58;;;18.40;84.50;;;;;;5114173;28;20048;-88
2021/08/20 05:05:12;;;;;;;2.67;1.75;;;18.40;84.50;;;;;;5096119;28;20050;-88
2021/08/20 05:07:38;;;;;;;2.72;1.88;;;18.50;84.40;;;;;;5096857;28;20027;-87
2021/08/20 05:10:11;;;;;;;2.78;2.00;;;18.40;83.90;;;;;;5114089;28;20098;-87
2021/08/20 05:12:40;;;;;;;3.05;1.70;;;18.40;85.10;;;;;;5114249;28;20024;-87
2021/08/20 05:15:07;;;;;;;3.58;2.08;;;18.40;84.20;;;;;;5095574;28;20031;-87
2021/08/20 05:17:33;;;;;;;3.75;1.90;;;18.40;84.40;;;;;;5095362;28;20040;-88
2021/08/20 05:19:59;;;;;;;2.60;2.10;;;18.40;84.60;;;;;;5095996;28;20499;-87
2021/08/20 05:22:25;;;;;;;3.20;1.90;;;18.40;84.70;;;;;;5095721;28;20038;-87
2021/08/20 05:24:50;;;;;;;2.42;1.63;;;18.40;84.50;;;;;;5095365;28;20031;-87
2021/08/20 05:27:16;;;;;;;3.15;1.90;;;18.40;84.80;;;;;;5094961;28;20106;-87
2021/08/20 05:29:42;;;;;;;3.97;1.60;;;18.50;84.60;;;;;;5114105;28;20047;-86
2021/08/20 05:32:08;;;;;;;2.25;1.73;;;18.40;84.70;;;;;;5114366;28;20384;-87
2021/08/20 05:34:33;;;;;;;2.70;1.98;;;18.50;84.70;;;;;;5113347;28;20388;-88
2021/08/20 05:36:59;;;;;;;5.43;2.00;;;18.50;84.60;;;;;;5094739;28;20514;-88
2021/08/20 05:39:25;;;;;;;3.60;1.90;;;18.50;85.10;;;;;;5094819;28;20480;-88
2021/08/20 05:41:51;;;;;;;2.85;1.92;;;18.50;84.60;;;;;;5094781;28;20024;-88
2021/08/20 05:44:16;;;;;;;3.72;2.08;;;18.50;84.80;;;;;;5095234;28;20408;-87
2021/08/20 05:46:42;;;;;;;3.53;2.03;;;18.50;84.50;;;;;;5095619;28;20020;-87
2021/08/20 05:49:08;;;;;;;2.60;2.00;;;18.50;84.60;;;;;;5094503;28;20495;-88
2021/08/20 05:51:34;;;;;;;4.07;1.83;;;18.60;84.80;;;;;;5094833;28;20383;-87
2021/08/20 05:54:01;;;;;;;3.25;1.67;;;18.60;84.80;;;;;;5113327;28;20023;-87
2021/08/20 05:56:27;;;;;;;1.80;1.60;;;18.60;84.50;;;;;;5095027;28;20024;-87
2021/08/20 05:58:52;;;;;;;3.03;1.80;;;18.60;84.60;;;;;;5095123;28;20073;-87
2021/08/20 06:01:19;;;;;;;2.95;1.63;;;18.60;84.50;;;;;;5093671;28;20510;-87
2021/08/20 06:03:44;;;;;;;2.85;1.77;;;18.60;84.50;;;;;;5094933;28;20035;-87
2021/08/20 06:06:16;;;;;;;2.97;1.60;;;18.60;84.80;;;;;;5096044;28;20106;-87
2021/08/20 06:08:42;;;;;;;2.90;1.73;;;18.60;84.60;;;;;;5095941;28;20111;-87
2021/08/20 06:11:08;;;;;;;3.40;1.80;;;18.60;84.70;;;;;;5095752;28;20073;-87
2021/08/20 06:13:34;;;;;;;2.35;1.38;;;18.60;84.80;;;;;;5094874;28;20035;-87
2021/08/20 06:16:00;;;;;;;2.35;1.80;;;18.60;84.90;;;;;;5087598;28;20077;-87
2021/08/20 06:18:26;;;;;;;2.80;1.75;;;18.70;85.20;;;;;;5085444;28;20055;-87
2021/08/20 06:20:51;;;;;;;3.55;2.08;;;18.70;85.00;;;;;;5094852;28;20110;-87
2021/08/20 06:23:17;;;;;;;2.72;1.63;;;18.80;85.00;;;;;;5095685;28;20024;-88
2021/08/20 06:25:43;;;;;;;2.72;1.70;;;18.80;84.80;;;;;;5095588;28;20430;-87
2021/08/20 06:28:08;;;;;;;2.55;2.03;;;18.80;84.70;;;;;;5095390;28;20023;-87
2021/08/20 06:30:34;;;;;;;3.33;2.00;;;18.80;84.50;;;;;;5094515;28;20165;-88
2021/08/20 06:33:00;;;;;;;3.47;1.70;;;18.90;84.70;;;;;;5113188;28;20034;-88
2021/08/20 06:35:25;;;;;;;3.63;2.08;;;18.90;84.70;;;;;;5094843;28;20028;-86
2021/08/20 06:37:51;;;;;;;6.03;2.25;;;19.00;84.70;;;;;;5095281;28;20128;-87
2021/08/20 06:40:17;;;;;;;3.80;1.90;;;19.00;84.40;;;;;;5094554;28;20026;-87
2021/08/20 06:42:42;;;;;;;4.63;2.03;;;19.10;84.30;;;;;;5094967;28;20442;-87
2021/08/20 06:45:08;;;;;;;3.22;1.88;;;19.10;84.30;;;;;;5095177;28;20114;-86
2021/08/20 06:47:34;;;;;;;3.53;1.65;;;19.10;84.20;;;;;;5094578;28;20031;-87
2021/08/20 06:50:00;;;;;;;4.15;2.20;;;19.10;84.10;;;;;;5094662;28;20024;-87
2021/08/20 06:52:26;;;;;;;4.18;1.95;;;19.20;84.20;;;;;;5094340;28;20030;-87
2021/08/20 06:54:56;;;;;;;3.20;2.10;;;19.20;84.10;;;;;;5090431;28;20035;-88
2021/08/20 06:57:22;;;;;;;2.80;1.77;;;19.20;84.00;;;;;;5092516;28;20019;-87
2021/08/20 06:59:48;;;;;;;2.67;1.55;;;19.20;84.30;;;;;;5093674;28;20134;-87
2021/08/20 07:02:13;;;;;;;3.20;1.90;;;19.20;83.90;;;;;;5093183;28;20027;-87
2021/08/20 07:04:39;;;;;;;3.25;2.10;;;19.30;84.10;;;;;;5094447;28;20539;-88
2021/08/20 07:07:05;;;;;;;3.30;1.98;;;19.30;84.10;;;;;;5093594;28;20024;-88
2021/08/20 07:09:31;;;;;;;3.30;2.17;;;19.40;84.10;;;;;;5094081;28;20031;-87
2021/08/20 07:11:56;;;;;;;3.47;2.28;;;19.30;83.80;;;;;;5094303;28;20023;-88
2021/08/20 07:14:22;;;;;;;4.20;2.20;;;19.40;84.00;;;;;;5094472;28;20027;-89
2021/08/20 07:16:47;;;;;;;3.53;2.40;;;19.40;83.90;;;;;;5086336;28;20601;-89
2021/08/20 07:19:13;;;;;;;4.13;2.20;;;19.50;83.90;;;;;;5090302;28;20050;-87
2021/08/20 07:21:39;;;;;;;3.80;2.20;;;19.50;83.80;;;;;;5094057;28;20024;-88
2021/08/20 07:24:04;;;;;;;2.72;1.98;;;19.50;83.30;;;;;;5093795;28;20036;-87
2021/08/20 07:26:30;;;;;;;4.88;2.30;;;19.50;82.90;;;;;;5094502;28;20034;-89
2021/08/20 07:28:55;;;;;;;4.53;2.20;;;19.50;83.20;;;;;;5094338;28;20028;-88
2021/08/20 07:31:21;;;;;;;4.20;2.00;;;19.60;83.40;;;;;;5094235;28;20050;-88
2021/08/20 07:33:47;;;;;;;5.65;2.42;;;19.60;83.40;;;;;;5093221;28;20038;-88
2021/08/20 07:36:12;;;;;;;2.63;2.00;;;19.70;83.40;;;;;;5093055;28;20020;-88
2021/08/20 07:38:38;;;;;;;2.78;1.80;;;19.80;83.40;;;;;;5111930;28;20059;-88
2021/08/20 07:41:04;;;;;;;2.33;1.77;;;19.80;83.30;;;;;;5093773;28;20020;-88
2021/08/20 07:43:29;;;;;;;2.53;1.90;;;19.90;83.00;;;;;;5092657;28;20138;-88
2021/08/20 07:45:56;;;;;;;4.07;2.25;;;19.90;82.90;;;;;;5093354;28;20055;-87
2021/08/20 07:48:22;;;;;;;3.88;2.25;;;20.00;82.60;;;;;;5111387;28;20080;-88
2021/08/20 07:50:48;;;;;;;2.70;1.92;;;20.00;82.50;;;;;;5093480;28;20031;-88
2021/08/20 07:53:16;;;;;;;5.05;2.30;;;20.00;82.50;;;;;;5111861;28;20470;-88
2021/08/20 07:55:43;;;;;;;3.60;2.05;;;20.00;82.30;;;;;;5110886;28;20107;-88
2021/08/20 07:58:09;;;;;;;3.22;2.13;;;20.10;82.30;;;;;;5092764;28;20031;-89
2021/08/20 08:00:34;;;;;;;3.65;2.28;;;20.10;82.10;;;;;;5092758;28;20381;-88
2021/08/20 08:03:00;;;;;;;2.95;2.15;;;20.20;82.20;;;;;;5092869;28;20042;-88
2021/08/20 08:05:26;;;;;;;3.85;2.03;;;20.20;82.00;;;;;;5111385;28;20020;-88
2021/08/20 08:07:54;;;;;;;2.95;2.03;;;20.30;81.80;;;;;;5112145;28;20484;-88
2021/08/20 08:10:21;;;;;;;3.88;1.95;;;20.30;81.80;;;;;;5092352;28;20120;-88
2021/08/20 08:12:47;;;;;;;3.22;1.90;;;20.40;81.60;;;;;;5092631;28;20031;-88
2021/08/20 08:15:13;;;;;;;3.05;1.80;;;20.40;81.40;;;;;;5095514;28;20053;-88
2021/08/20 08:17:40;;;;;;;3.63;2.20;;;20.40;81.30;;;;;;5096538;28;20054;-87
2021/08/20 08:20:08;;;;;;;3.05;2.03;;;20.40;81.10;;;;;;5093651;28;20035;-88
2021/08/20 08:22:35;;;;;;;3.38;1.98;;;20.40;80.90;;;;;;5119796;27;20073;-88
2021/08/20 08:25:00;;;;;;;3.80;1.85;;;20.40;80.80;;;;;;5092635;28;20024;-87
2021/08/20 08:27:26;;;;;;;3.47;1.75;;;20.40;80.90;;;;;;5096511;28;20028;-88
2021/08/20 08:29:52;;;;;;;3.08;1.80;;;20.40;81.10;;;;;;5096745;28;20032;-87
2021/08/20 08:32:18;;;;;;;2.67;1.70;;;20.50;81.20;;;;;;5097385;28;20133;-87
2021/08/20 08:34:43;;;;;;;2.72;1.50;;;20.50;81.00;;;;;;5097631;28;20422;-88
2021/08/20 08:37:09;;;;;;;2.13;1.60;;;20.50;81.10;;;;;;5096952;28;20020;-87
2021/08/20 08:39:34;;;;;;;2.85;2.03;;;20.60;81.00;;;;;;5096558;28;20038;-87
2021/08/20 08:42:01;;;;;;;3.42;1.90;;;20.60;80.20;;;;;;5096350;28;20016;-87
2021/08/20 08:44:27;;;;;;;2.25;1.45;;;20.60;79.70;;;;;;5096949;28;20032;-88
2021/08/20 08:46:54;;;;;;;2.65;1.48;;;20.60;80.20;;;;;;5097293;28;20026;-87
2021/08/20 08:49:22;;;;;;;3.38;1.55;;;20.60;80.10;;;;;;5115317;28;20032;-87
2021/08/20 08:51:48;;;;;;;2.35;1.60;;;20.70;80.00;;;;;;5095821;28;20027;-88
2021/08/20 08:54:14;;;;;;;1.90;1.63;;;20.80;79.90;;;;;;5096298;28;20077;-88
2021/08/20 08:56:44;;;;;;;3.17;1.60;;;20.80;79.80;;;;;;5096081;28;20387;-88
2021/08/20 08:59:11;;;;;;;2.60;1.77;;;20.80;80.00;;;;;;5096860;28;20027;-87
2021/08/20 09:01:38;;;;;;;3.70;1.95;;;20.80;79.80;;;;;;5096904;28;20062;-87
2021/08/20 09:04:25;;;;;;;3.45;1.73;;;20.80;79.50;;;;;;5096171;28;20032;-87
2021/08/20 09:06:55;;;;;;;2.00;1.40;;;20.80;79.60;;;;;;5096071;28;20030;-88
2021/08/20 09:09:23;;;;;;;2.72;1.50;;;20.80;79.80;;;;;;5096034;28;20028;-87
2021/08/20 09:11:58;;;;;;;3.58;1.40;;;20.90;79.90;;;;;;5095633;28;20027;-88
2021/08/20 09:14:32;;;;;;;2.30;1.50;;;20.90;79.70;;;;;;5096351;28;20028;-88
2021/08/20 09:16:59;;;;;;;3.92;1.60;;;21.00;80.00;;;;;;5096837;28;20483;-87
2021/08/20 09:19:25;;;;;;;3.10;1.90;;;21.00;79.20;;;;;;5114314;28;20051;-87
2021/08/20 09:21:53;;;;;;;3.35;1.75;;;21.10;79.10;;;;;;5095699;28;20077;-88
2021/08/20 09:24:31;;;;;;;3.42;1.48;;;21.10;80.10;;;;;;5095266;28;20028;-88
2021/08/20 09:27:18;;;;;;;3.42;1.67;;;21.20;78.90;;;;;;5095647;28;20445;-87
2021/08/20 09:30:11;;;;;;;2.67;1.45;;;21.10;78.60;;;;;;5098958;28;20035;-87
2021/08/20 09:32:44;;;;;;;4.30;1.60;;;21.20;78.90;;;;;;5079316;28;20077;-87
2021/08/20 09:35:10;;;;;;;3.60;1.50;;;21.30;78.70;;;;;;5092613;28;20034;-87
2021/08/20 09:37:36;;;;;;;2.53;1.80;;;21.30;78.10;;;;;;5094767;28;20078;-87
2021/08/20 09:40:10;;;;;;;1.75;1.38;;;21.40;78.10;;;;;;5092517;28;20028;-87
2021/08/20 09:42:36;;;;;;;4.32;1.60;;;21.50;77.80;;;;;;5095609;28;20062;-87
2021/08/20 09:45:16;;;;;;;3.28;1.95;;;21.50;77.60;;;;;;5095681;28;20031;-87
2021/08/20 09:47:48;;;;;;;3.25;1.55;;;21.50;77.90;;;;;;5098149;28;20023;-87
2021/08/20 09:50:14;;;;;;;4.07;1.55;;;21.50;78.20;;;;;;5114154;28;20048;-88
2021/08/20 09:52:40;;;;;;;3.25;1.70;;;21.60;77.80;;;;;;5095932;28;20036;-87
2021/08/20 09:55:06;;;;;;;3.20;1.70;;;21.60;77.30;;;;;;5095107;28;20031;-88
2021/08/20 09:57:36;;;;;;;4.43;2.65;;;21.70;76.60;;;;;;5094857;28;20036;-88
2021/08/20 10:00:02;;;;;;;4.07;1.63;;;21.70;76.90;;;;;;5094390;28;20065;-87
2021/08/20 10:02:29;;;;;;;5.45;3.83;;;21.70;76.40;;;;;;5095298;28;20035;-87
2021/08/20 10:04:57;;;;;;;2.45;1.52;;;21.80;76.40;;;;;;5113930;28;20429;-87
2021/08/20 10:07:27;;;;;;;2.53;1.73;;;21.90;76.20;;;;;;5094906;28;20027;-87
2021/08/20 10:09:54;;;;;;;3.50;1.60;;;21.90;76.00;;;;;;5094410;28;20612;-87
2021/08/20 10:12:22;;;;;;;2.33;1.40;;;21.90;76.00;;;;;;5094722;28;20024;-88
2021/08/20 10:14:49;;;;;;;4.13;2.03;;;22.10;75.70;;;;;;5094914;28;20020;-88
2021/08/20 10:17:16;;;;;;;2.55;1.67;;;22.10;75.80;;;;;;5113162;28;20103;-87
2021/08/20 10:19:42;;;;;;;3.15;1.75;;;22.20;75.30;;;;;;5112819;28;20032;-87
2021/08/20 10:22:09;;;;;;;1.85;1.70;;;22.40;75.20;;;;;;5113192;28;20473;-87
2021/08/20 10:24:35;;;;;;;3.28;1.50;;;22.40;74.60;;;;;;5094574;28;20084;-87
2021/08/20 10:27:05;;;;;;;2.72;1.52;;;22.40;74.50;;;;;;5094392;28;20122;-87
2021/08/20 10:29:32;;;;;;;2.08;1.35;;;22.50;74.30;;;;;;5094843;28;20035;-87
2021/08/20 10:32:02;;;;;;;1.92;1.15;;;22.50;73.80;;;;;;5113690;28;20052;-87
2021/08/20 10:34:31;;;;;;;2.95;1.60;;;22.60;73.90;;;;;;5094551;28;20055;-87
2021/08/20 10:37:16;;;;;;;1.98;1.40;;;22.60;74.40;;;;;;5093529;28;20023;-87
2021/08/20 10:39:44;;;;;;;5.90;3.50;;;22.60;73.90;;;;;;5112462;28;20043;-87
2021/08/20 10:42:16;;;;;;;3.53;1.90;;;22.60;73.20;;;;;;5094331;28;20480;-87
2021/08/20 10:44:44;;;;;;;3.17;1.60;;;22.70;73.70;;;;;;5112864;28;20501;-87
2021/08/20 10:47:22;;;;;;;2.83;1.50;;;22.80;73.20;;;;;;5095197;28;20035;-87
2021/08/20 10:49:49;;;;;;;2.08;1.40;;;22.90;74.00;;;;;;5095050;28;20023;-87
2021/08/20 10:52:26;;;;;;;2.65;1.40;;;23.00;73.00;;;;;;5093591;28;20019;-86
2021/08/20 10:54:54;;;;;;;4.85;1.42;;;23.10;72.60;;;;;;5094196;28;20028;-87
2021/08/20 10:57:35;;;;;;;4.18;1.70;;;23.10;72.20;;;;;;5093373;28;20047;-87
2021/08/20 11:00:03;;;;;;;2.03;1.50;;;23.10;72.40;;;;;;5094386;28;20032;-88
2021/08/20 11:02:29;;;;;;;2.45;1.20;;;23.20;71.50;;;;;;5094311;28;20074;-87
2021/08/20 11:05:05;;;;;;;2.70;1.42;;;23.20;71.50;;;;;;5094513;28;20027;-87
2021/08/20 11:07:42;;;;;;;2.65;1.20;;;23.30;71.20;;;;;;5093331;28;20388;-87
2021/08/20 11:10:08;;;;;;;1.80;1.30;;;23.30;71.20;;;;;;5093819;28;20024;-87
2021/08/20 11:12:43;;;;;;;3.38;1.40;;;23.20;70.70;;;;;;5094075;28;20383;-87
2021/08/20 11:15:20;;;;;;;2.50;1.50;;;23.20;71.60;;;;;;5094043;28;20467;-87
2021/08/20 11:17:49;;;;;;;2.75;1.40;;;23.30;71.70;;;;;;5112793;28;20043;-87
2021/08/20 11:20:23;;;;;;;2.47;1.40;;;23.30;69.80;;;;;;5094411;28;20059;-87
2021/08/20 11:23:17;;;;;;;2.70;1.90;;;23.30;70.30;;;;;;5108940;28;20065;-87
2021/08/20 11:25:47;;;;;;;1.55;1.40;;;23.30;71.50;;;;;;5091159;28;20035;-87
2021/08/20 11:28:27;;;;;;;1.33;1.13;;;23.20;69.70;;;;;;5111897;28;20039;-87
2021/08/20 11:31:08;;;;;;;1.58;0.93;;;23.20;70.40;;;;;;5112220;28;20058;-89
2021/08/20 11:33:42;;;;;;;2.42;1.10;;;23.10;70.10;;;;;;5093186;28;20400;-88
2021/08/20 11:36:12;;;;;;;1.25;0.90;;;23.10;69.90;;;;;;5090936;28;20024;-87
2021/08/20 11:38:41;;;;;;;1.48;0.98;;;23.00;69.20;;;;;;5081758;28;20027;-87
2021/08/20 11:41:13;;;;;;;2.30;1.02;;;23.00;69.60;;;;;;5086125;28;20035;-87
2021/08/20 11:44:05;;;;;;;1.30;0.93;;;23.00;69.20;;;;;;5092319;28;20744;-88
2021/08/20 11:46:37;;;;;;;1.75;0.80;;;23.10;69.90;;;;;;5110345;28;20071;-87
2021/08/20 11:49:04;;;;;;;2.20;1.10;;;23.10;69.40;;;;;;5113000;28;20030;-88
2021/08/20 11:51:37;;;;;;;3.22;2.20;;;23.10;68.70;;;;;;5096875;28;20031;-89
2021/08/20 11:54:10;;;;;;;2.35;1.10;;;23.20;69.30;;;;;;5116282;28;20024;-87
2021/08/20 11:56:37;;;;;;;0.90;0.75;;;23.20;68.80;;;;;;5097646;28;20509;-88
2021/08/20 11:59:08;;;;;;;1.45;0.90;;;23.20;67.50;;;;;;5098035;28;20026;-87
2021/08/20 12:01:35;;;;;;;2.38;0.88;;;23.20;68.20;;;;;;5089968;28;20427;-87
2021/08/20 12:04:01;;;;;;;0.95;0.70;;;23.20;67.30;;;;;;5097511;28;20453;-88
2021/08/20 12:06:28;;;;;;;2.85;1.00;;;23.20;67.00;;;;;;5096615;28;20103;-87
2021/08/20 12:08:58;;;;;;;1.10;0.60;;;23.20;67.00;;;;;;5115799;28;20488;-87
2021/08/20 12:11:28;;;;;;;2.50;0.70;;;23.20;66.00;;;;;;5097629;28;20558;-88
2021/08/20 12:13:56;;;;;;;0.90;0.50;;;23.20;65.30;;;;;;5108488;28;20038;-88
2021/08/20 12:16:52;;;;;;;1.02;0.63;;;23.20;66.00;;;;;;5093707;28;20043;-87
2021/08/20 12:19:30;;;;;;;0.95;0.60;;;23.10;66.50;;;;;;5095510;28;20575;-88
2021/08/20 12:22:08;;;;;;;0.70;0.52;;;23.10;66.50;;;;;;5115711;28;20084;-87
2021/08/20 12:24:40;;;;;;;0.88;0.50;;;23.10;66.60;;;;;;5096945;28;20039;-87
2021/08/20 12:27:19;;;;;;;1.27;1.00;;;23.20;65.80;;;;;;5097027;28;20502;-87
2021/08/20 12:29:57;;;;;;;2.22;0.85;;;23.30;66.00;;;;;;5100431;28;20032;-87
2021/08/20 12:32:23;;;;;;;1.23;0.68;;;23.50;66.90;;;;;;5131826;27;20035;-86
2021/08/20 12:35:00;;;;;;;1.75;0.60;;;23.50;65.40;;;;;;5097367;28;20030;-87
2021/08/20 12:37:30;;;;;;;1.85;0.82;;;23.60;65.90;;;;;;5095828;28;20498;-88
2021/08/20 12:40:08;;;;;;;1.67;0.70;;;23.70;64.80;;;;;;5114832;27;20456;-87
2021/08/20 12:42:46;;;;;;;2.03;1.00;;;23.70;64.90;;;;;;5095729;28;20460;-87
2021/08/20 12:45:21;;;;;;;5.80;3.90;;;23.90;64.90;;;;;;5095811;28;20042;-87
2021/08/20 12:48:05;;;;;;;5.57;3.20;;;24.10;65.30;;;;;;5115947;27;20483;-87
2021/08/20 12:50:33;;;;;;;2.95;1.40;;;24.20;64.40;;;;;;5096606;28;20112;-87